Time;durP1;ratioP1;P1;durP2;ratioP2;P2;SDS_P1;SDS_P2;PMS_P1;PMS_P2;Temp;Humidity;BMP_temperature;BMP_pressure;BME280_temperature;BME280_humidity;BME280_pressure;Samples;Min_cycle;Max_cycle;Signal;HPM_P1;HPM_P2
2023/09/01 00:01:30;;;;;;;0.70;0.50;;;;;;;9.76;96.22;98960.89;110394;1270;22203;-55
2023/09/01 00:03:59;;;;;;;2.20;0.80;;;;;;;9.72;96.06;98956.56;110388;1270;22355;-54
2023/09/01 00:06:28;;;;;;;1.40;0.70;;;;;;;9.69;96.18;98958.98;110285;1270;99013;-55
2023/09/01 00:08:56;;;;;;;1.00;0.80;;;;;;;9.66;96.40;98956.20;110411;1270;22326;-54
2023/09/01 00:11:25;;;;;;;0.70;0.60;;;;;;;9.65;96.65;98958.85;110328;1270;99469;-54
2023/09/01 00:13:53;;;;;;;1.20;0.60;;;;;;;9.63;96.52;98954.42;110254;1270;22356;-55
2023/09/01 00:16:22;;;;;;;0.70;0.50;;;;;;;9.62;96.69;98954.31;110434;1270;22495;-55
2023/09/01 00:18:51;;;;;;;1.10;0.60;;;;;;;9.62;96.85;98951.71;110174;1271;98730;-54
2023/09/01 00:21:19;;;;;;;4.30;0.70;;;;;;;9.60;96.86;98948.66;110333;1270;23361;-55
2023/09/01 00:23:48;;;;;;;0.80;0.60;;;;;;;9.58;96.82;98946.21;110327;1270;99564;-55
2023/09/01 00:26:17;;;;;;;1.00;0.80;;;;;;;9.56;97.06;98943.88;110432;1270;22311;-55
2023/09/01 00:28:46;;;;;;;7.20;1.80;;;;;;;9.56;97.15;98941.96;110285;1270;100069;-55
2023/09/01 00:31:17;;;;;;;3.30;0.80;;;;;;;9.55;97.22;98941.32;110226;1270;22332;-54
2023/09/01 00:33:46;;;;;;;0.60;0.50;;;;;;;9.55;97.05;98945.65;110368;1270;22111;-55
2023/09/01 00:36:14;;;;;;;1.50;0.90;;;;;;;9.53;97.22;98944.77;110078;1270;99585;-55
2023/09/01 00:38:43;;;;;;;0.70;0.50;;;;;;;9.52;97.41;98946.34;110249;1271;22336;-54
2023/09/01 00:41:12;;;;;;;1.30;0.60;;;;;;;9.49;97.23;98940.45;110333;1270;99772;-54
2023/09/01 00:43:40;;;;;;;0.70;0.60;;;;;;;9.47;97.49;98939.70;110378;1270;22294;-54
2023/09/01 00:46:09;;;;;;;0.60;0.50;;;;;;;9.44;97.45;98938.10;110406;1271;22601;-55
2023/09/01 00:48:38;;;;;;;1.10;0.50;;;;;;;9.40;97.25;98943.73;110198;1275;99144;-54
2023/09/01 00:51:07;;;;;;;1.00;0.70;;;;;;;9.38;97.47;98937.60;110404;1270;22164;-55
2023/09/01 00:53:39;;;;;;;0.30;0.30;;;;;;;9.37;97.79;98937.63;110300;1271;99497;-55
2023/09/01 00:56:09;;;;;;;0.70;0.30;;;;;;;9.36;97.84;98934.43;110406;1270;22286;-55
2023/09/01 00:58:38;;;;;;;0.60;0.50;;;;;;;9.33;97.87;98939.26;110182;1270;99090;-55
2023/09/01 01:01:06;;;;;;;1.00;0.70;;;;;;;9.31;97.89;98930.69;110425;1271;22343;-55
2023/09/01 01:03:35;;;;;;;1.30;0.70;;;;;;;9.30;98.11;98932.80;110406;1271;23044;-54
2023/09/01 01:06:16;;;;;;;0.60;0.40;;;;;;;9.31;98.31;98935.39;110324;1272;98945;-55
2023/09/01 01:09:00;;;;;;;1.30;0.70;;;;;;;9.29;98.23;98939.63;110394;1270;22374;-55
2023/09/01 01:11:29;;;;;;;0.60;0.50;;;;;;;9.28;98.39;98943.32;110305;1270;100194;-54
2023/09/01 01:14:03;;;;;;;0.80;0.60;;;;;;;9.26;98.34;98943.95;110393;1259;22279;-55
2023/09/01 01:16:33;;;;;;;1.00;0.90;;;;;;;9.23;98.46;98943.77;110178;1273;99157;-55
2023/09/01 01:19:21;;;;;;;0.90;0.60;;;;;;;9.22;98.56;98947.17;110244;1270;22236;-54
2023/09/01 01:21:52;;;;;;;0.90;0.50;;;;;;;9.18;98.52;98941.06;110373;1270;22412;-54
2023/09/01 01:24:22;;;;;;;0.70;0.60;;;;;;;9.24;98.52;98943.23;110287;1270;99357;-55
2023/09/01 01:26:53;;;;;;;1.10;0.70;;;;;;;9.27;98.42;98938.88;110403;1270;22298;-54
2023/09/01 01:29:22;;;;;;;0.70;0.50;;;;;;;9.20;98.82;98939.23;110070;1271;99043;-55
2023/09/01 01:31:52;;;;;;;1.50;0.80;;;;;;;9.16;99.33;98939.29;110414;1270;22296;-54
2023/09/01 01:34:38;;;;;;;0.50;0.50;;;;;;;9.24;99.40;98938.17;110424;1270;22182;-54
2023/09/01 01:37:19;;;;;;;0.70;0.60;;;;;;;9.35;99.33;98936.36;110257;1272;22289;-54
2023/09/01 01:39:50;;;;;;;1.60;0.80;;;;;;;9.42;99.35;98935.83;110344;1271;22907;-54
2023/09/01 01:42:21;;;;;;;1.10;0.60;;;;;;;9.43;99.08;98938.52;110312;1270;100751;-54
2023/09/01 01:44:51;;;;;;;1.90;0.90;;;;;;;9.45;99.14;98939.48;110251;1271;22743;-54
2023/09/01 01:47:21;;;;;;;2.10;0.70;;;;;;;9.44;99.19;98946.10;110328;1270;98983;-54
2023/09/01 01:49:49;;;;;;;0.80;0.60;;;;;;;9.48;99.32;98943.29;110271;1270;22329;-54
2023/09/01 01:52:18;;;;;;;1.00;0.90;;;;;;;9.54;99.51;98942.77;110396;1272;22878;-55
2023/09/01 01:54:46;;;;;;;0.80;0.60;;;;;;;9.65;99.78;98948.23;110348;1272;98993;-54
2023/09/01 01:57:15;;;;;;;0.90;0.80;;;;;;;9.83;99.79;98949.14;110400;1270;22391;-54
2023/09/01 01:59:44;;;;;;;1.60;1.10;;;;;;;9.96;99.71;98955.88;110313;1271;99439;-54
2023/09/01 02:02:13;;;;;;;2.20;1.00;;;;;;;10.03;99.69;98950.42;110399;1270;22151;-54
2023/09/01 02:04:42;;;;;;;0.90;0.70;;;;;;;10.11;99.85;98953.83;110180;1273;99255;-54
2023/09/01 02:07:11;;;;;;;1.70;1.00;;;;;;;10.22;99.79;98955.27;110387;1270;22248;-54
2023/09/01 02:09:39;;;;;;;1.00;0.90;;;;;;;10.33;99.87;98953.47;110403;1272;22132;-54
2023/09/01 02:12:08;;;;;;;1.00;0.70;;;;;;;10.42;99.80;98954.12;110314;1270;99138;-54
2023/09/01 02:14:37;;;;;;;1.60;0.90;;;;;;;10.50;99.84;98956.08;110431;1270;23090;-54
2023/09/01 02:17:06;;;;;;;1.00;0.90;;;;;;;10.57;99.77;98953.77;110279;1270;99891;-54
2023/09/01 02:19:35;;;;;;;1.20;0.70;;;;;;;10.63;99.81;98951.18;110346;1272;22196;-55
2023/09/01 02:22:05;;;;;;;1.40;1.20;;;;;;;10.68;99.92;98955.55;110141;1270;22418;-54
2023/09/01 02:24:34;;;;;;;1.60;1.10;;;;;;;10.75;99.99;98958.09;110311;1270;99162;-54
2023/09/01 02:27:04;;;;;;;1.20;1.00;;;;;;;10.81;99.94;98956.67;110138;1272;22874;-55
2023/09/01 02:29:33;;;;;;;1.20;0.90;;;;;;;10.86;99.96;98954.30;110023;1270;99929;-55
2023/09/01 02:32:02;;;;;;;1.20;1.00;;;;;;;10.91;100.00;98957.10;110392;1272;23014;-54
2023/09/01 02:34:32;;;;;;;1.50;1.00;;;;;;;10.96;100.00;98955.36;110271;1273;22278;-55
2023/09/01 02:37:01;;;;;;;1.30;0.90;;;;;;;11.01;99.97;98954.98;110378;1270;22056;-54
2023/09/01 02:39:29;;;;;;;1.50;1.10;;;;;;;11.03;99.99;98954.52;110367;1270;22374;-54
2023/09/01 02:42:00;;;;;;;1.00;0.80;;;;;;;11.02;100.00;98958.38;110181;1272;99298;-54
2023/09/01 02:44:29;;;;;;;1.30;1.10;;;;;;;10.99;100.00;98953.13;110370;1270;22290;-54
2023/09/01 02:46:57;;;;;;;1.50;1.30;;;;;;;10.95;99.92;98950.95;110312;1271;99541;-54
2023/09/01 02:49:26;;;;;;;1.80;1.30;;;;;;;10.89;100.00;98955.66;110366;1270;22323;-54
2023/09/01 02:51:54;;;;;;;1.10;0.90;;;;;;;10.89;100.00;98949.91;110391;1272;22154;-54
2023/09/01 02:54:23;;;;;;;1.40;1.30;;;;;;;10.89;100.00;98952.34;110216;1275;99314;-55
2023/09/01 02:56:51;;;;;;;1.90;1.30;;;;;;;10.86;100.00;98951.34;110252;1272;22283;-55
2023/09/01 02:59:20;;;;;;;0.80;0.70;;;;;;;10.83;100.00;98949.41;110315;1271;99507;-54
2023/09/01 03:01:48;;;;;;;1.40;1.20;;;;;;;10.80;100.00;98950.29;110374;1271;22138;-54
2023/09/01 03:04:17;;;;;;;0.70;0.70;;;;;;;10.75;100.00;98952.50;110165;1270;22665;-54
2023/09/01 03:06:46;;;;;;;3.60;1.30;;;;;;;10.71;100.00;98956.39;110319;1272;99841;-53
2023/09/01 03:09:15;;;;;;;1.10;1.00;;;;;;;10.65;100.00;98953.66;110261;1273;22282;-54
2023/09/01 03:11:44;;;;;;;1.40;1.20;;;;;;;10.59;100.00;98955.04;110161;1275;99812;-54
2023/09/01 03:14:12;;;;;;;1.30;1.00;;;;;;;10.58;100.00;98965.23;110271;1272;22300;-54
2023/09/01 03:16:44;;;;;;;1.10;0.90;;;;;;;10.63;100.00;98964.77;110189;1271;100168;-55
2023/09/01 03:19:12;;;;;;;1.50;0.90;;;;;;;10.71;100.00;98960.58;110374;1272;22120;-54
2023/09/01 03:21:41;;;;;;;1.00;0.90;;;;;;;10.73;100.00;98960.48;110225;1271;23067;-55
2023/09/01 03:24:10;;;;;;;1.10;1.00;;;;;;;10.71;100.00;98959.56;110185;1273;99385;-55
2023/09/01 03:26:38;;;;;;;1.50;1.10;;;;;;;10.65;100.00;98957.64;110273;1272;23049;-54
2023/09/01 03:29:07;;;;;;;1.20;0.90;;;;;;;10.61;100.00;98955.64;110304;1272;100030;-54
2023/09/01 03:31:35;;;;;;;1.50;1.10;;;;;;;10.68;100.00;98955.71;110393;1270;22139;-54
2023/09/01 03:34:06;;;;;;;0.80;0.70;;;;;;;10.70;100.00;98960.66;110336;1272;24763;-55
2023/09/01 03:36:36;;;;;;;2.20;1.00;;;;;;;10.74;100.00;98959.00;110228;1267;99841;-54
2023/09/01 03:39:07;;;;;;;1.80;0.90;;;;;;;10.82;100.00;98958.55;110345;1271;22302;-54
2023/09/01 03:41:37;;;;;;;1.00;0.70;;;;;;;10.80;100.00;98957.30;110282;1270;99317;-55
2023/09/01 03:44:05;;;;;;;0.80;0.80;;;;;;;10.71;100.00;98956.75;110224;1273;22371;-54
2023/09/01 03:46:34;;;;;;;0.90;0.80;;;;;;;10.71;100.00;98953.80;110323;1272;22375;-54
2023/09/01 03:49:03;;;;;;;1.00;0.90;;;;;;;10.67;100.00;98956.30;110336;1270;22773;-55
2023/09/01 03:51:31;;;;;;;0.80;0.70;;;;;;;10.65;100.00;98947.40;110351;1272;23090;-54
2023/09/01 03:54:00;;;;;;;1.10;0.80;;;;;;;10.65;100.00;98945.49;110312;1270;99296;-55
2023/09/01 03:56:28;;;;;;;1.00;0.80;;;;;;;10.57;100.00;98944.58;110383;1273;22217;-54
2023/09/01 03:58:57;;;;;;;1.80;1.00;;;;;;;10.55;100.00;98948.69;110284;1270;100328;-54
2023/09/01 04:01:25;;;;;;;1.30;1.10;;;;;;;10.49;100.00;98956.87;110281;1270;22296;-54
2023/09/01 04:03:54;;;;;;;1.70;0.80;;;;;;;10.36;100.00;98955.02;110376;1272;22269;-54
2023/09/01 04:06:23;;;;;;;1.00;0.80;;;;;;;10.40;100.00;98956.33;110264;1275;99823;-54
2023/09/01 04:08:52;;;;;;;1.70;0.70;;;;;;;10.41;100.00;98962.35;110313;1272;22298;-55
2023/09/01 04:11:20;;;;;;;1.10;0.90;;;;;;;10.45;100.00;98962.66;110273;1268;99430;-55
2023/09/01 04:13:49;;;;;;;0.80;0.80;;;;;;;10.50;100.00;98966.70;110345;1270;22269;-55
2023/09/01 04:16:17;;;;;;;1.60;0.80;;;;;;;10.49;100.00;98963.84;110328;1272;22298;-56
2023/09/01 04:18:47;;;;;;;1.20;1.10;;;;;;;10.61;100.00;98959.50;110225;1272;99398;-56
2023/09/01 04:21:16;;;;;;;1.60;0.80;;;;;;;10.80;100.00;98953.81;110329;1270;22059;-56
2023/09/01 04:23:48;;;;;;;0.70;0.50;;;;;;;10.89;100.00;98953.22;110190;1273;100078;-55
2023/09/01 04:26:17;;;;;;;1.30;0.70;;;;;;;10.96;100.00;98946.16;110249;1273;22290;-56
2023/09/01 04:28:46;;;;;;;1.60;0.80;;;;;;;10.98;100.00;98942.22;110268;1270;99581;-55
2023/09/01 04:31:35;;;;;;;1.70;0.90;;;;;;;10.90;100.00;98937.34;110284;1270;22973;-56
2023/09/01 04:34:03;;;;;;;1.60;1.40;;;;;;;10.86;100.00;98937.77;110226;1275;22128;-55
2023/09/01 04:36:32;;;;;;;1.30;1.00;;;;;;;10.88;100.00;98939.04;110283;1272;99301;-55
2023/09/01 04:39:15;;;;;;;1.80;0.80;;;;;;;10.98;100.00;98933.73;110358;1272;22529;-55
2023/09/01 04:41:44;;;;;;;1.10;0.90;;;;;;;11.08;100.00;98935.54;110298;1271;99396;-55
2023/09/01 04:44:13;;;;;;;1.50;1.10;;;;;;;11.20;100.00;98933.22;110201;1270;22387;-55
2023/09/01 04:46:42;;;;;;;2.70;0.90;;;;;;;11.40;100.00;98935.48;110277;1272;100044;-55
2023/09/01 04:49:11;;;;;;;1.60;1.00;;;;;;;11.59;100.00;98935.29;110339;1270;23005;-55
2023/09/01 04:51:40;;;;;;;3.30;1.10;;;;;;;11.76;100.00;98935.45;110183;1273;22360;-55
2023/09/01 04:54:08;;;;;;;4.50;2.00;;;;;;;11.94;100.00;98937.41;110262;1270;98301;-54
2023/09/01 04:56:37;;;;;;;1.50;0.90;;;;;;;12.10;100.00;98936.71;110292;1262;22355;-56
2023/09/01 04:59:06;;;;;;;0.70;0.60;;;;;;;12.26;100.00;98937.73;110163;1275;100333;-56
2023/09/01 05:01:34;;;;;;;2.90;1.50;;;;;;;12.38;100.00;98942.73;110230;1272;22373;-56
2023/09/01 05:04:05;;;;;;;0.90;0.70;;;;;;;12.46;100.00;98948.31;110375;1270;22161;-56
2023/09/01 05:06:36;;;;;;;1.50;1.00;;;;;;;12.58;100.00;98949.06;110188;1270;99846;-56
2023/09/01 05:09:04;;;;;;;1.80;0.80;;;;;;;12.65;100.00;98945.63;110336;1270;23106;-56
2023/09/01 05:11:33;;;;;;;2.30;0.90;;;;;;;12.71;100.00;98946.21;110138;1272;100343;-55
2023/09/01 05:14:02;;;;;;;1.80;0.80;;;;;;;12.74;100.00;98946.21;110365;1270;22301;-56
2023/09/01 05:16:31;;;;;;;1.30;1.00;;;;;;;12.72;100.00;98950.52;110280;1275;22142;-56
2023/09/01 05:19:00;;;;;;;1.70;1.00;;;;;;;12.76;100.00;98947.95;110264;1273;23486;-56
2023/09/01 05:21:28;;;;;;;1.70;1.20;;;;;;;12.81;100.00;98951.17;110366;1272;22133;-56
2023/09/01 05:23:57;;;;;;;3.40;0.90;;;;;;;12.86;100.00;98948.38;110163;1275;99489;-57
2023/09/01 05:26:26;;;;;;;1.10;0.80;;;;;;;12.88;100.00;98947.89;110361;1270;22289;-54
2023/09/01 05:28:55;;;;;;;1.00;0.70;;;;;;;12.92;100.00;98940.64;110295;1270;99952;-56
2023/09/01 05:31:24;;;;;;;2.10;0.90;;;;;;;12.93;100.00;98937.95;110197;1270;24071;-56
2023/09/01 05:33:53;;;;;;;1.90;1.20;;;;;;;12.99;100.00;98931.41;110353;1272;22571;-56
2023/09/01 05:36:21;;;;;;;1.10;0.80;;;;;;;12.97;100.00;98933.84;110245;1270;99479;-55
2023/09/01 05:38:50;;;;;;;1.50;1.10;;;;;;;13.00;100.00;98935.33;110249;1270;23591;-56
2023/09/01 05:41:19;;;;;;;1.10;0.90;;;;;;;13.01;100.00;98936.52;110096;1272;100150;-55
2023/09/01 05:43:48;;;;;;;1.60;1.00;;;;;;;13.01;100.00;98936.84;110352;1270;22300;-56
2023/09/01 05:46:16;;;;;;;1.20;1.00;;;;;;;13.00;100.00;98937.29;110342;1270;22296;-57
2023/09/01 05:48:45;;;;;;;1.20;1.00;;;;;;;13.00;100.00;98938.50;110150;1270;99483;-58
2023/09/01 05:51:14;;;;;;;2.10;1.30;;;;;;;13.02;100.00;98941.29;110190;1270;22280;-57
2023/09/01 05:53:43;;;;;;;1.40;1.20;;;;;;;13.08;100.00;98943.52;110118;1272;99321;-56
2023/09/01 05:56:12;;;;;;;3.80;1.30;;;;;;;13.26;100.00;98946.66;110350;1272;23970;-61
2023/09/01 05:58:40;;;;;;;1.30;1.10;;;;;;;13.41;100.00;98946.80;110253;1272;99875;-56
2023/09/01 06:01:09;;;;;;;1.10;1.00;;;;;;;13.59;100.00;98946.77;110359;1270;22585;-57
2023/09/01 06:03:38;;;;;;;1.00;0.80;;;;;;;13.70;100.00;98946.66;110368;1272;22343;-56
2023/09/01 06:06:09;;;;;;;1.70;1.20;;;;;;;13.76;100.00;98950.63;109851;1270;417136;-55
2023/09/01 06:08:37;;;;;;;1.00;0.90;;;;;;;13.87;100.00;98948.74;110118;1273;22032;-58
2023/09/01 06:11:08;;;;;;;2.20;1.10;;;;;;;13.84;100.00;98947.05;110276;1272;99425;-57
2023/09/01 06:13:37;;;;;;;1.60;0.90;;;;;;;13.92;100.00;98953.27;110352;1270;22276;-57
2023/09/01 06:16:06;;;;;;;2.00;1.30;;;;;;;14.04;100.00;98955.91;110275;1273;22324;-58
2023/09/01 06:18:38;;;;;;;2.90;1.30;;;;;;;14.10;100.00;98956.17;110318;1270;99390;-57
2023/09/01 06:21:07;;;;;;;3.20;1.50;;;;;;;14.19;100.00;98951.12;110155;1275;22390;-57
2023/09/01 06:23:44;;;;;;;0.80;0.70;;;;;;;14.09;100.00;98954.14;110147;1270;99942;-57
2023/09/01 06:26:20;;;;;;;1.80;1.60;;;;;;;14.13;100.00;98954.58;110372;1272;22381;-57
2023/09/01 06:28:49;;;;;;;1.10;1.00;;;;;;;14.20;100.00;98956.69;110285;1273;99984;-57
2023/09/01 06:31:17;;;;;;;1.70;1.10;;;;;;;14.32;100.00;98953.42;110336;1272;22260;-57
2023/09/01 06:33:47;;;;;;;1.70;0.90;;;;;;;14.60;100.00;98951.52;110365;1262;22218;-57
2023/09/01 06:36:18;;;;;;;2.10;1.20;;;;;;;15.19;100.00;98946.46;110286;1272;99311;-57
2023/09/01 06:38:48;;;;;;;1.20;0.90;;;;;;;15.64;100.00;98941.16;110246;1271;22224;-57
2023/09/01 06:41:16;;;;;;;1.50;0.90;;;;;;;15.81;100.00;98940.88;110335;1270;102224;-57
2023/09/01 06:43:45;;;;;;;1.90;1.00;;;;;;;15.79;100.00;98935.58;110408;1270;22287;-58
2023/09/01 06:46:14;;;;;;;1.00;0.60;;;;;;;15.75;99.68;98935.89;110387;1272;22319;-57
2023/09/01 06:48:43;;;;;;;1.60;0.90;;;;;;;15.46;98.99;98935.02;110271;1270;99594;-57
2023/09/01 06:51:12;;;;;;;1.20;0.90;;;;;;;15.09;98.91;98939.35;110121;1273;22287;-57
2023/09/01 06:53:40;;;;;;;1.50;0.90;;;;;;;14.74;98.87;98943.12;110272;1263;99693;-58
2023/09/01 06:56:09;;;;;;;2.80;1.40;;;;;;;14.50;98.74;98944.91;110242;1275;22173;-57
2023/09/01 06:58:38;;;;;;;1.50;0.80;;;;;;;14.33;98.88;98948.66;110294;1273;99290;-57
2023/09/01 07:01:11;;;;;;;1.00;0.80;;;;;;;14.32;98.60;98948.08;110251;1269;22244;-57
2023/09/01 07:03:39;;;;;;;1.10;0.90;;;;;;;14.23;98.62;98948.94;110398;1271;22826;-57
2023/09/01 07:06:08;;;;;;;2.50;1.40;;;;;;;14.30;98.94;98953.28;110291;1273;99653;-56
2023/09/01 07:08:37;;;;;;;0.90;0.80;;;;;;;14.34;98.63;98953.16;110359;1272;22297;-58
2023/09/01 07:11:10;;;;;;;1.30;0.90;;;;;;;14.35;98.34;98949.20;110260;1273;99799;-58
2023/09/01 07:13:38;;;;;;;2.10;1.10;;;;;;;14.20;97.99;98944.73;110348;1270;22376;-57
2023/09/01 07:16:07;;;;;;;1.40;0.90;;;;;;;14.13;98.20;98945.99;110373;1272;22139;-57
2023/09/01 07:18:36;;;;;;;4.50;1.70;;;;;;;14.23;97.99;98947.89;110266;1271;99665;-57
2023/09/01 07:21:05;;;;;;;1.70;1.10;;;;;;;14.69;99.40;98946.31;110364;1264;22803;-57
2023/09/01 07:23:34;;;;;;;1.30;0.80;;;;;;;15.59;99.47;98947.67;110319;1263;99055;-59
2023/09/01 07:26:03;;;;;;;1.60;0.80;;;;;;;16.07;98.15;98947.34;110381;1273;22139;-57
2023/09/01 07:28:32;;;;;;;1.30;1.00;;;;;;;16.22;97.55;98945.35;110403;1275;22394;-64
2023/09/01 07:31:00;;;;;;;3.80;1.00;;;;;;;16.21;96.85;98942.18;110359;1276;22287;-58
2023/09/01 07:33:30;;;;;;;3.50;1.90;;;;;;;16.11;96.83;98941.55;110234;1271;24279;-58
2023/09/01 07:35:58;;;;;;;1.50;0.80;;;;;;;16.11;97.00;98939.77;110265;1274;99195;-58
2023/09/01 07:38:27;;;;;;;1.90;1.10;;;;;;;16.10;96.37;98944.31;110256;1273;22146;-58
2023/09/01 07:40:55;;;;;;;1.30;0.80;;;;;;;15.98;96.41;98945.47;110178;1275;99790;-57
2023/09/01 07:43:24;;;;;;;0.90;0.70;;;;;;;15.91;96.45;98945.89;110386;1270;22349;-58
2023/09/01 07:45:54;;;;;;;1.80;1.20;;;;;;;15.71;95.82;98943.61;110393;1271;22269;-58
2023/09/01 07:48:22;;;;;;;1.10;0.80;;;;;;;15.35;95.43;98948.02;110165;1270;99286;-56
2023/09/01 07:50:51;;;;;;;1.70;1.30;;;;;;;15.03;95.55;98947.77;110365;1270;22505;-57
2023/09/01 07:53:20;;;;;;;1.30;0.90;;;;;;;14.93;96.78;98949.73;110262;1273;98862;-63
2023/09/01 07:55:49;;;;;;;1.50;1.00;;;;;;;15.03;96.96;98950.73;110358;1272;22269;-63
2023/09/01 07:58:17;;;;;;;1.60;1.00;;;;;;;14.99;96.34;98954.89;110112;1273;22326;-62
2023/09/01 08:00:46;;;;;;;1.30;1.00;;;;;;;14.87;95.95;98955.23;110146;1277;99108;-63
2023/09/01 08:03:16;;;;;;;1.00;0.80;;;;;;;14.71;95.78;98959.14;110260;1272;23006;-64
2023/09/01 08:05:45;;;;;;;1.50;0.90;;;;;;;14.48;95.47;98964.20;110112;1276;100082;-63
2023/09/01 08:08:14;;;;;;;0.90;0.70;;;;;;;14.15;95.60;98967.52;110244;1272;23148;-63
2023/09/01 08:10:43;;;;;;;1.80;1.00;;;;;;;13.94;96.14;98973.80;110043;1275;100301;-66
2023/09/01 08:13:11;;;;;;;1.90;1.20;;;;;;;13.86;96.09;98976.65;110206;1275;24001;-64
2023/09/01 08:15:40;;;;;;;0.80;0.60;;;;;;;13.81;96.28;98972.30;110228;1273;22283;-63
2023/09/01 08:18:08;;;;;;;2.40;0.90;;;;;;;13.84;96.40;98977.50;110122;1272;99635;-63
2023/09/01 08:20:37;;;;;;;1.00;0.90;;;;;;;13.84;96.38;98976.94;110106;1273;22155;-62
2023/09/01 08:23:06;;;;;;;2.20;0.90;;;;;;;13.80;96.11;98979.16;110119;1272;99305;-61
2023/09/01 08:25:36;;;;;;;1.00;0.90;;;;;;;13.62;96.18;98975.93;110099;1274;23413;-62
2023/09/01 08:28:06;;;;;;;1.10;0.80;;;;;;;13.48;96.81;98977.95;110116;1275;23056;-61
2023/09/01 08:30:38;;;;;;;1.80;0.70;;;;;;;13.39;97.09;98976.13;110067;1272;99548;-61
2023/09/01 08:33:08;;;;;;;1.30;0.70;;;;;;;13.35;97.23;98975.40;110243;1275;22283;-60
2023/09/01 08:35:37;;;;;;;1.30;0.80;;;;;;;13.29;97.68;98974.95;110003;1272;99147;-60
2023/09/01 08:38:06;;;;;;;1.60;0.80;;;;;;;13.15;98.42;98972.68;110182;1272;22321;-54
2023/09/01 08:40:35;;;;;;;1.10;0.90;;;;;;;13.08;98.63;98963.61;110144;1276;22296;-56
2023/09/01 08:43:04;;;;;;;1.30;0.90;;;;;;;13.10;99.14;98966.61;110113;1273;22359;-56
2023/09/01 08:45:40;;;;;;;1.20;0.80;;;;;;;13.16;98.72;98963.89;110071;1279;22335;-58
2023/09/01 08:48:11;;;;;;;1.60;1.20;;;;;;;13.18;98.92;98963.63;109994;1273;99346;-62
2023/09/01 08:50:41;;;;;;;1.30;1.10;;;;;;;13.24;99.64;98970.00;110210;1272;22165;-58
2023/09/01 08:53:09;;;;;;;2.40;1.80;;;;;;;13.32;99.77;98971.39;110123;1271;99887;-59
2023/09/01 08:55:38;;;;;;;2.90;1.30;;;;;;;13.43;99.90;98971.64;110120;1267;22311;-60
2023/09/01 08:58:07;;;;;;;1.20;0.70;;;;;;;13.54;99.89;98969.63;110331;1273;22309;-59
2023/09/01 09:00:36;;;;;;;2.40;1.00;;;;;;;13.62;100.00;98974.35;110283;1270;99137;-62
2023/09/01 09:03:05;;;;;;;2.30;0.90;;;;;;;13.60;100.00;98977.80;110114;1273;22123;-62
2023/09/01 09:05:38;;;;;;;1.60;0.90;;;;;;;13.50;99.92;98980.23;110314;1270;99365;-62
2023/09/01 09:08:08;;;;;;;2.10;0.90;;;;;;;13.46;100.00;98977.38;110174;1273;22300;-61
2023/09/01 09:10:43;;;;;;;1.70;1.00;;;;;;;13.45;100.00;98975.02;110367;1270;22742;-55
2023/09/01 09:13:29;;;;;;;1.40;0.90;;;;;;;13.40;100.00;98971.38;110371;1270;22348;-57
2023/09/01 09:16:12;;;;;;;2.00;1.30;;;;;;;13.34;100.00;98968.80;110149;1270;22293;-55
2023/09/01 09:18:43;;;;;;;2.40;1.30;;;;;;;13.36;100.00;98964.81;110329;1270;99946;-55
2023/09/01 09:21:32;;;;;;;2.90;1.00;;;;;;;13.40;100.00;98967.88;110356;1270;22417;-53
2023/09/01 09:24:05;;;;;;;2.30;1.00;;;;;;;13.40;100.00;98972.95;110297;1270;99871;-58
2023/09/01 09:26:56;;;;;;;4.60;1.30;;;;;;;13.40;100.00;98976.23;110375;1270;22338;-59
2023/09/01 09:29:26;;;;;;;2.20;1.10;;;;;;;13.48;100.00;98984.44;110194;1270;99601;-59
2023/09/01 09:31:58;;;;;;;1.50;1.00;;;;;;;13.55;100.00;98979.33;110392;1270;22467;-60
2023/09/01 09:34:27;;;;;;;2.30;1.40;;;;;;;13.53;100.00;98986.67;110215;1270;22170;-58
2023/09/01 09:36:56;;;;;;;1.60;1.20;;;;;;;13.25;100.00;98990.02;110329;1272;99270;-60
2023/09/01 09:39:26;;;;;;;1.30;0.80;;;;;;;13.06;100.00;98990.50;110245;1270;24348;-59
2023/09/01 09:41:59;;;;;;;1.60;0.90;;;;;;;13.03;100.00;98983.34;110182;1270;99439;-64
2023/09/01 09:44:33;;;;;;;1.80;1.00;;;;;;;12.96;100.00;98989.45;110153;1272;22286;-59
2023/09/01 09:47:10;;;;;;;2.60;1.20;;;;;;;12.85;100.00;98987.57;110061;1276;99747;-62
2023/09/01 09:49:39;;;;;;;1.70;1.20;;;;;;;12.72;100.00;98996.30;110201;1270;23062;-57
2023/09/01 09:52:09;;;;;;;1.60;1.10;;;;;;;12.61;100.00;98996.31;110380;1270;22290;-67
2023/09/01 09:54:40;;;;;;;2.20;1.10;;;;;;;12.55;100.00;98996.41;110323;1270;99899;-60
2023/09/01 09:57:18;;;;;;;2.00;1.60;;;;;;;12.45;100.00;98992.73;110202;1270;22357;-61
2023/09/01 10:00:08;;;;;;;1.90;1.20;;;;;;;12.37;100.00;98993.95;110133;1270;99295;-64
2023/09/01 10:02:43;;;;;;;2.50;1.30;;;;;;;12.31;100.00;98991.33;110380;1270;22364;-59
2023/09/01 10:05:15;;;;;;;4.90;1.80;;;;;;;12.30;100.00;98993.30;110074;1270;100050;-59
2023/09/01 10:07:44;;;;;;;2.70;1.60;;;;;;;12.29;100.00;98995.10;110365;1270;22357;-59
2023/09/01 10:10:13;;;;;;;3.30;1.70;;;;;;;12.26;100.00;99000.37;110210;1271;22387;-58
2023/09/01 10:12:42;;;;;;;1.50;1.20;;;;;;;12.23;100.00;99012.94;110324;1270;99259;-61
2023/09/01 10:15:15;;;;;;;1.70;1.20;;;;;;;12.24;100.00;99011.55;110234;1270;22243;-58
2023/09/01 10:17:46;;;;;;;2.20;1.40;;;;;;;12.24;100.00;99013.48;110164;1272;99872;-64
2023/09/01 10:20:16;;;;;;;3.10;1.50;;;;;;;12.21;100.00;99013.80;110370;1270;23922;-52
2023/09/01 10:22:48;;;;;;;2.50;1.70;;;;;;;12.16;100.00;99016.05;110145;1272;99819;-57
2023/09/01 10:25:19;;;;;;;2.50;1.50;;;;;;;12.14;100.00;99019.54;110148;1274;22238;-54
2023/09/01 10:28:10;;;;;;;1.60;1.30;;;;;;;12.17;100.00;99018.08;110391;1271;22335;-54
2023/09/01 10:31:12;;;;;;;3.50;1.70;;;;;;;12.17;100.00;99020.90;110083;1272;99410;-60
2023/09/01 10:33:41;;;;;;;2.10;1.30;;;;;;;12.14;100.00;99030.52;110289;1270;22365;-57
2023/09/01 10:36:13;;;;;;;3.50;1.60;;;;;;;12.12;100.00;99030.64;110325;1270;100891;-57
2023/09/01 10:38:44;;;;;;;2.00;1.30;;;;;;;12.14;100.00;99032.45;110128;1273;22491;-59
2023/09/01 10:41:47;;;;;;;6.90;2.80;;;;;;;12.21;100.00;99035.77;110312;1270;99837;-61
2023/09/01 10:44:16;;;;;;;6.60;1.90;;;;;;;12.18;100.00;99036.89;110382;1270;22109;-56
2023/09/01 10:46:45;;;;;;;3.70;2.30;;;;;;;12.18;100.00;99033.73;110206;1270;23335;-58
2023/09/01 10:49:14;;;;;;;2.40;1.70;;;;;;;12.20;100.00;99034.80;110243;1270;22874;-59
2023/09/01 10:51:43;;;;;;;2.00;1.20;;;;;;;12.30;100.00;99032.05;110190;1270;22150;-57
2023/09/01 10:54:15;;;;;;;1.70;1.40;;;;;;;12.39;100.00;99032.92;110151;1262;99907;-57
2023/09/01 10:56:58;;;;;;;2.20;1.80;;;;;;;12.45;100.00;99031.83;110403;1270;22117;-55
2023/09/01 10:59:36;;;;;;;2.90;1.50;;;;;;;12.58;100.00;99031.25;110069;1274;99532;-57
2023/09/01 11:02:22;;;;;;;1.70;1.30;;;;;;;12.68;100.00;99029.77;110193;1270;22897;-53
2023/09/01 11:04:51;;;;;;;2.70;1.50;;;;;;;12.79;100.00;99021.84;110055;1271;99809;-57
2023/09/01 11:07:20;;;;;;;3.90;1.70;;;;;;;12.97;100.00;99022.86;110131;1270;22279;-56
2023/09/01 11:09:51;;;;;;;3.60;1.90;;;;;;;13.14;100.00;99022.75;110237;1263;22946;-58
2023/09/01 11:12:28;;;;;;;3.40;1.80;;;;;;;13.39;100.00;99023.69;110225;1270;99357;-58
2023/09/01 11:14:59;;;;;;;2.00;1.80;;;;;;;13.66;100.00;99020.21;110237;1271;22182;-58
2023/09/01 11:17:47;;;;;;;1.70;1.30;;;;;;;13.88;100.00;99012.54;110060;1270;99591;-54
2023/09/01 11:20:19;;;;;;;;;;;;;;;14.25;100.00;99017.04;110174;1272;22409;-56
2023/09/01 11:23:08;;;;;;;2.90;1.50;;;;;;;14.53;100.00;99012.88;110154;1270;85834;-62
2023/09/01 11:25:36;;;;;;;2.50;1.50;;;;;;;14.79;100.00;99009.02;110213;1271;22943;-58
2023/09/01 11:28:05;;;;;;;2.30;1.30;;;;;;;14.79;100.00;99010.37;110114;1270;22131;-53
2023/09/01 11:30:34;;;;;;;1.50;1.10;;;;;;;14.65;100.00;99015.14;110339;1270;99262;-55
2023/09/01 11:33:12;;;;;;;1.40;1.20;;;;;;;14.71;100.00;99018.00;110212;1273;22335;-58
2023/09/01 11:35:41;;;;;;;1.20;0.90;;;;;;;14.77;100.00;99018.80;110108;1270;99223;-55
2023/09/01 11:38:20;;;;;;;1.90;1.10;;;;;;;14.92;100.00;99014.45;110350;1270;22504;-55